Terminal Aerodrome Forecast
Issued by NWS Dallas/Fort Worth, TX

Home | Current Version | Previous Version | Text Only | Print | Product List | Glossary On
Versions: 1 2 3 4 5 6 7 8 9 10 11 12 13 14 15 16 17 18 19 20 21 22 23 24 25 26 27 28 29 30 31 32 33
683
FTUS44 KFWD 281811 AAA
TAFACT
TAF AMD
KACT 281811Z 2818/2918 15016KT P6SM SCT025 BKN040
      TEMPO 2818/2820 BKN025
     FM282000 16017KT P6SM SCT025 BKN040
     FM290600 14015KT P6SM BKN025
     FM290800 14013KT 4SM -TSRA BKN020 OVC050CB
     FM291100 16010KT P6SM VCSH BKN035
     FM291500 18014KT P6SM SCT040 BKN090=

USA.gov is the U.S. government's official web portal to all federal, state and local government web resources and services.